createdAt,value
2023-02-07T01:25:28.480Z,0.28
2023-02-07T01:26:19.850Z,0.25
2023-02-07T01:27:19.569Z,0.22
2023-02-07T01:28:21.300Z,0.19
2023-02-07T01:29:21.126Z,0.17
2023-02-07T01:30:21.794Z,0.15
2023-02-07T01:31:22.860Z,0.13
2023-02-07T01:32:23.623Z,0.11
2023-02-07T01:33:24.545Z,0.09
2023-02-07T01:34:25.378Z,0.08
2023-02-07T01:35:26.349Z,0.06
2023-02-07T01:36:27.340Z,0.04
2023-02-07T01:37:29.223Z,0.03
2023-02-07T01:38:28.999Z,0.01
2023-02-07T01:39:29.804Z,0.00
2023-02-07T01:40:30.718Z,-0.01
2023-02-07T01:41:31.551Z,-0.02
2023-02-07T01:42:32.353Z,-0.04
2023-02-07T01:43:33.218Z,-0.05
2023-02-07T01:44:34.125Z,-0.06
2023-02-07T01:45:35.101Z,-0.07
2023-02-07T01:46:35.243Z,-0.07
2023-02-07T01:47:35.672Z,-0.08
2023-02-07T01:48:36.398Z,-0.09
2023-02-07T01:49:37.200Z,-0.10
2023-02-07T01:50:37.944Z,-0.11
2023-02-07T01:51:38.797Z,-0.12
2023-02-07T01:52:39.528Z,-0.13
2023-02-07T01:53:40.509Z,-0.14
2023-02-07T01:54:41.321Z,-0.15
2023-02-07T01:55:42.142Z,-0.16
2023-02-07T01:56:42.938Z,-0.17
2023-02-07T01:56:52.044Z,-0.42
2023-02-07T01:57:53.024Z,-0.43
2023-02-07T01:58:53.885Z,-0.43
2023-02-07T01:59:54.133Z,-0.43
2023-02-07T02:00:54.904Z,-0.42
2023-02-07T02:01:55.636Z,-0.42
2023-02-07T02:02:56.306Z,-0.42
2023-02-07T02:03:56.973Z,-0.41
2023-02-07T02:04:57.799Z,-0.41
2023-02-07T02:05:58.497Z,-0.41
2023-02-07T02:06:58.841Z,-0.41
2023-02-07T02:07:59.745Z,-0.40
2023-02-07T02:09:00.438Z,-0.40
2023-02-07T02:10:01.320Z,-0.40
2023-02-07T02:11:02.053Z,-0.40
2023-02-07T02:12:02.934Z,-0.40
2023-02-07T02:13:03.630Z,-0.40
2023-02-07T02:14:04.284Z,-0.40
2023-02-07T02:15:04.970Z,-0.40
2023-02-07T02:16:05.064Z,-0.41
2023-02-07T02:17:06.010Z,-0.41
2023-02-07T02:18:06.666Z,-0.41
2023-02-07T02:19:07.312Z,-0.41
2023-02-07T02:20:07.326Z,-0.41
2023-02-07T02:21:07.954Z,-0.41
2023-02-07T02:22:08.601Z,-0.41
2023-02-07T02:23:09.434Z,-0.41
2023-02-07T02:24:09.837Z,-0.41
2023-02-07T02:25:09.892Z,-0.41
2023-02-07T02:26:10.696Z,-0.41
2023-02-07T02:27:11.443Z,-0.41
2023-02-07T02:28:12.226Z,-0.41
2023-02-07T02:29:12.816Z,-0.41
2023-02-07T02:30:13.595Z,-0.41
2023-02-07T02:30:22.337Z,-0.42
2023-02-07T02:31:22.993Z,-0.43
2023-02-07T02:32:23.798Z,-0.43
2023-02-07T02:33:24.457Z,-0.43
2023-02-07T02:34:25.166Z,-0.44
2023-02-07T02:35:26.037Z,-0.44
2023-02-07T02:36:26.888Z,-0.44
2023-02-07T02:37:27.736Z,-0.45
2023-02-07T02:38:28.397Z,-0.45
2023-02-07T02:39:29.096Z,-0.45
2023-02-07T02:40:29.737Z,-0.46
2023-02-07T02:41:30.518Z,-0.46
2023-02-07T02:42:31.285Z,-0.47
2023-02-07T02:43:31.934Z,-0.48
2023-02-07T02:44:33.645Z,-0.50
2023-02-07T02:45:32.623Z,-0.51
2023-02-07T02:46:33.568Z,-0.52
2023-02-07T02:47:34.297Z,-0.53
2023-02-07T02:48:34.931Z,-0.54
2023-02-07T02:49:35.536Z,-0.55
2023-02-07T02:50:36.293Z,-0.56
2023-02-07T02:51:37.057Z,-0.57
2023-02-07T02:52:50.309Z,-0.57
2023-02-07T02:53:38.135Z,-0.58
2023-02-07T02:54:38.764Z,-0.59
2023-02-07T02:55:39.697Z,-0.59
2023-02-07T02:56:40.213Z,-0.60
2023-02-07T02:57:40.947Z,-0.61
2023-02-07T02:58:41.859Z,-0.61
2023-02-07T02:59:42.541Z,-0.62
2023-02-07T03:00:43.281Z,-0.63
2023-02-07T03:01:44.289Z,-0.64
2023-02-07T03:02:44.880Z,-0.66
2023-02-07T03:02:54.456Z,-0.82
2023-02-07T03:03:54.770Z,-0.83
2023-02-07T03:04:56.089Z,-0.83
2023-02-07T03:05:55.865Z,-0.83
2023-02-07T03:06:56.829Z,-0.82
2023-02-07T03:07:57.832Z,-0.82
2023-02-07T03:08:58.072Z,-0.82
2023-02-07T03:09:58.073Z,-0.82
2023-02-07T03:10:58.909Z,-0.82
2023-02-07T03:11:59.845Z,-0.81
2023-02-07T03:13:00.803Z,-0.81
2023-02-07T03:14:01.538Z,-0.81
2023-02-07T03:15:02.484Z,-0.81
2023-02-07T03:16:02.667Z,-0.81
2023-02-07T03:17:03.400Z,-0.81
2023-02-07T03:18:04.283Z,-0.81
2023-02-07T03:19:05.241Z,-0.81
2023-02-07T03:20:05.863Z,-0.81
2023-02-07T03:21:06.837Z,-0.82
2023-02-07T03:22:07.449Z,-0.82
2023-02-07T03:23:08.101Z,-0.82
2023-02-07T03:24:08.082Z,-0.82
2023-02-07T03:25:08.909Z,-0.82
2023-02-07T03:26:09.071Z,-0.82
2023-02-07T03:27:09.956Z,-0.83
2023-02-07T03:28:10.373Z,-0.83
2023-02-07T03:29:10.912Z,-0.83
2023-02-07T03:30:11.737Z,-0.84
2023-02-07T03:31:11.820Z,-0.84
2023-02-07T03:32:12.590Z,-0.85
2023-02-07T03:33:12.633Z,-0.85
2023-02-07T03:34:13.437Z,-0.86
2023-02-07T03:35:13.685Z,-0.86
2023-02-07T03:36:13.751Z,-0.86
2023-02-07T03:36:22.429Z,-0.90
2023-02-07T03:37:23.308Z,-0.92
2023-02-07T03:38:23.942Z,-0.92
2023-02-07T03:39:25.029Z,-0.93
2023-02-07T03:40:24.901Z,-0.93
2023-02-07T03:41:25.680Z,-0.93
2023-02-07T03:42:26.526Z,-0.93
2023-02-07T03:43:26.598Z,-0.93
2023-02-07T03:44:27.002Z,-0.94
2023-02-07T03:45:27.847Z,-0.94
2023-02-07T03:46:27.897Z,-0.94
2023-02-07T03:47:28.665Z,-0.94
2023-02-07T03:48:29.501Z,-0.94
2023-02-07T03:49:29.570Z,-0.94
2023-02-07T03:50:29.655Z,-0.94
2023-02-07T03:51:29.758Z,-0.94
2023-02-07T03:52:30.623Z,-0.94
2023-02-07T03:53:31.446Z,-0.95
2023-02-07T03:54:32.464Z,-0.95
2023-02-07T03:55:33.087Z,-0.95
2023-02-07T03:56:33.894Z,-0.95
2023-02-07T03:57:33.910Z,-0.96
2023-02-07T03:58:34.809Z,-0.96
2023-02-07T03:59:35.718Z,-0.96
2023-02-07T04:00:35.748Z,-0.96
2023-02-07T04:01:35.860Z,-0.97
2023-02-07T04:02:36.755Z,-0.97
2023-02-07T04:03:37.527Z,-0.97
2023-02-07T04:04:37.605Z,-0.97
2023-02-07T04:05:39.893Z,-0.97
2023-02-07T04:06:39.026Z,-0.97
2023-02-07T04:07:39.029Z,-0.97
2023-02-07T04:08:39.893Z,-0.97
2023-02-07T04:08:48.606Z,-0.97
2023-02-07T04:09:48.711Z,-0.99
2023-02-07T04:10:49.546Z,-0.99
2023-02-07T04:11:50.265Z,-0.99
2023-02-07T04:12:50.280Z,-0.99
2023-02-07T04:13:51.276Z,-0.99
2023-02-07T04:14:52.271Z,-0.99
2023-02-07T04:15:52.530Z,-0.99
2023-02-07T04:16:52.502Z,-0.99
2023-02-07T04:17:52.560Z,-0.98
2023-02-07T04:18:54.253Z,-0.98
2023-02-07T04:19:54.264Z,-0.98
2023-02-07T04:20:54.504Z,-0.98
2023-02-07T04:21:55.185Z,-0.98
2023-02-07T04:22:55.477Z,-0.98
2023-02-07T04:23:56.151Z,-0.98
2023-02-07T04:24:56.851Z,-0.99
2023-02-07T04:25:57.563Z,-0.99
2023-02-07T04:26:57.573Z,-0.99
2023-02-07T04:27:58.538Z,-0.99
2023-02-07T04:28:58.768Z,-0.99
2023-02-07T04:29:58.714Z,-1.00
2023-02-07T04:30:58.851Z,-1.01
2023-02-07T04:31:59.820Z,-1.02
2023-02-07T04:33:00.743Z,-1.02
2023-02-07T04:34:01.578Z,-1.03
2023-02-07T04:35:02.428Z,-1.04
2023-02-07T04:36:02.635Z,-1.05
2023-02-07T04:37:02.682Z,-1.06
2023-02-07T04:38:03.373Z,-1.07
2023-02-07T04:39:03.575Z,-1.08
2023-02-07T04:40:04.474Z,-1.08
2023-02-07T04:40:13.123Z,-1.20
2023-02-07T04:41:14.097Z,-1.23
2023-02-07T04:42:14.751Z,-1.24
2023-02-07T04:43:15.424Z,-1.24
2023-02-07T04:44:15.744Z,-1.24
2023-02-07T04:45:16.607Z,-1.24
2023-02-07T04:46:17.595Z,-1.24
2023-02-07T04:47:18.464Z,-1.25
2023-02-07T04:48:18.656Z,-1.25
2023-02-07T04:49:18.818Z,-1.26
2023-02-07T04:50:19.795Z,-1.26
2023-02-07T04:51:19.769Z,-1.27
2023-02-07T04:52:19.787Z,-1.27
2023-02-07T04:53:20.758Z,-1.28
2023-02-07T04:54:21.726Z,-1.28
2023-02-07T04:55:21.832Z,-1.29
2023-02-07T04:56:22.722Z,-1.30
2023-02-07T04:57:23.712Z,-1.30
2023-02-07T04:58:25.260Z,-1.31
2023-02-07T04:59:25.049Z,-1.32
2023-02-07T05:00:25.899Z,-1.32
2023-02-07T05:01:26.678Z,-1.33
2023-02-07T05:02:27.118Z,-1.34
2023-02-07T05:03:27.336Z,-1.34
2023-02-07T05:04:28.743Z,-1.35
2023-02-07T05:05:30.569Z,-1.36
2023-02-07T05:06:28.496Z,-1.36
2023-02-07T05:06:37.649Z,-1.48
2023-02-07T05:07:38.607Z,-1.50
2023-02-07T05:08:39.152Z,-1.51
2023-02-07T05:09:39.153Z,-1.50
2023-02-07T05:10:39.388Z,-1.50
2023-02-07T05:11:40.298Z,-1.50
2023-02-07T05:12:41.172Z,-1.50
2023-02-07T05:13:41.182Z,-1.49
2023-02-07T05:14:42.031Z,-1.49
2023-02-07T05:15:42.945Z,-1.49
2023-02-07T05:16:43.956Z,-1.48
2023-02-07T05:17:44.693Z,-1.48
2023-02-07T05:18:45.622Z,-1.48
2023-02-07T05:19:45.746Z,-1.48
2023-02-07T05:20:46.263Z,-1.48
2023-02-07T05:21:47.184Z,-1.48
2023-02-07T05:22:48.136Z,-1.48
2023-02-07T05:23:48.351Z,-1.48
2023-02-07T05:24:49.143Z,-1.47
2023-02-07T05:25:49.447Z,-1.48
2023-02-07T05:26:49.465Z,-1.48
2023-02-07T05:27:50.490Z,-1.48
2023-02-07T05:28:51.332Z,-1.48
2023-02-07T05:29:52.213Z,-1.48
2023-02-07T05:30:53.111Z,-1.48
2023-02-07T05:31:54.019Z,-1.49
2023-02-07T05:32:54.756Z,-1.49
2023-02-07T05:33:55.464Z,-1.49
2023-02-07T05:34:56.374Z,-1.49
2023-02-07T05:35:57.155Z,-1.49
2023-02-07T05:36:58.006Z,-1.50
2023-02-07T05:37:58.346Z,-1.50
2023-02-07T05:38:59.117Z,-1.50
2023-02-07T05:39:59.978Z,-1.51
2023-02-07T05:41:00.922Z,-1.51
2023-02-07T05:41:10.532Z,-1.62
2023-02-07T05:42:11.465Z,-1.64
2023-02-07T05:43:12.322Z,-1.64
2023-02-07T05:44:13.090Z,-1.63
2023-02-07T05:45:13.796Z,-1.63
2023-02-07T05:46:13.831Z,-1.63
2023-02-07T05:47:13.873Z,-1.63
2023-02-07T05:48:14.177Z,-1.63
2023-02-07T05:49:14.958Z,-1.63
2023-02-07T05:50:15.971Z,-1.63
2023-02-07T05:51:16.924Z,-1.63
2023-02-07T05:52:17.906Z,-1.63
2023-02-07T05:53:17.939Z,-1.64
2023-02-07T05:54:18.172Z,-1.64
2023-02-07T05:55:19.076Z,-1.64
2023-02-07T05:56:19.965Z,-1.64
2023-02-07T05:57:20.681Z,-1.64
2023-02-07T05:58:20.741Z,-1.65
2023-02-07T05:59:21.419Z,-1.65
2023-02-07T06:00:21.824Z,-1.65
2023-02-07T06:01:22.575Z,-1.65
2023-02-07T06:02:22.628Z,-1.65
2023-02-07T06:03:23.469Z,-1.65
2023-02-07T06:04:24.292Z,-1.66
2023-02-07T06:05:25.294Z,-1.66
2023-02-07T06:06:25.343Z,-1.66
2023-02-07T06:07:25.355Z,-1.66
2023-02-07T06:08:26.190Z,-1.67
2023-02-07T06:09:26.380Z,-1.67
2023-02-07T06:10:27.696Z,-1.68
2023-02-07T06:11:27.624Z,-1.69
2023-02-07T06:12:27.675Z,-1.69
2023-02-07T06:13:28.530Z,-1.70
2023-02-07T06:13:37.177Z,-1.77
2023-02-07T06:14:37.188Z,-1.78
2023-02-07T06:15:38.292Z,-1.78
2023-02-07T06:16:38.844Z,-1.78
2023-02-07T06:17:39.629Z,-1.79
2023-02-07T06:18:39.737Z,-1.79
2023-02-07T06:19:40.884Z,-1.79
2023-02-07T06:20:40.652Z,-1.79
2023-02-07T06:21:46.794Z,-1.79
2023-02-07T06:22:41.860Z,-1.80
2023-02-07T06:23:42.644Z,-1.80
2023-02-07T06:24:42.695Z,-1.81
2023-02-07T06:25:42.846Z,-1.82
2023-02-07T06:26:43.801Z,-1.82
2023-02-07T06:27:44.587Z,-1.83
2023-02-07T06:28:45.328Z,-1.83
2023-02-07T06:29:46.062Z,-1.84
2023-02-07T06:30:47.417Z,-1.85
2023-02-07T06:31:47.480Z,-1.85
2023-02-07T06:32:47.432Z,-1.86
2023-02-07T06:33:47.612Z,-1.86
2023-02-07T06:34:48.572Z,-1.87
2023-02-07T06:35:49.600Z,-1.88
2023-02-07T06:36:50.512Z,-1.88
2023-02-07T06:37:50.566Z,-1.89
2023-02-07T06:38:51.481Z,-1.89
2023-02-07T06:39:52.273Z,-1.90
2023-02-07T06:40:53.281Z,-1.90
2023-02-07T06:41:54.289Z,-1.91
2023-02-07T06:42:55.201Z,-1.92
2023-02-07T06:43:55.892Z,-1.93
2023-02-07T06:44:56.709Z,-1.94
2023-02-07T06:45:57.613Z,-1.95
2023-02-07T06:46:58.574Z,-1.96
2023-02-07T06:47:07.230Z,-2.05
2023-02-07T06:48:08.177Z,-2.06
2023-02-07T06:49:08.933Z,-2.07
2023-02-07T06:50:09.877Z,-2.07
2023-02-07T06:51:09.946Z,-2.07
2023-02-07T06:52:09.928Z,-2.07
2023-02-07T06:53:10.014Z,-2.07
2023-02-07T06:54:10.989Z,-2.08
2023-02-07T06:55:11.353Z,-2.08
2023-02-07T06:56:11.808Z,-2.09
2023-02-07T06:57:12.698Z,-2.10
2023-02-07T06:58:12.985Z,-2.11
2023-02-07T06:59:13.860Z,-2.12
2023-02-07T07:00:14.168Z,-2.12
2023-02-07T07:01:14.487Z,-2.13
2023-02-07T07:02:14.620Z,-2.14
2023-02-07T07:03:14.626Z,-2.14
2023-02-07T07:04:14.605Z,-2.15
2023-02-07T07:05:16.486Z,-2.16
2023-02-07T07:06:15.669Z,-2.16
2023-02-07T07:07:15.954Z,-2.17
2023-02-07T07:08:16.907Z,-2.17
2023-02-07T07:09:17.754Z,-2.18
2023-02-07T07:10:17.991Z,-2.18
2023-02-07T07:11:18.665Z,-2.19
2023-02-07T07:12:19.588Z,-2.19
2023-02-07T07:13:20.458Z,-2.19
2023-02-07T07:14:21.163Z,-2.19
2023-02-07T07:15:22.120Z,-2.20
2023-02-07T07:16:22.472Z,-2.19
2023-02-07T07:17:23.354Z,-2.19
2023-02-07T07:18:23.930Z,-2.19
2023-02-07T07:18:33.436Z,-2.11
2023-02-07T07:19:34.321Z,-2.13
2023-02-07T07:20:35.148Z,-2.13
2023-02-07T07:21:35.962Z,-2.13
2023-02-07T07:22:37.398Z,-2.13
2023-02-07T07:23:37.182Z,-2.13
2023-02-07T07:24:37.625Z,-2.13
2023-02-07T07:25:38.775Z,-2.12
2023-02-07T07:26:48.833Z,-2.12
2023-02-07T07:27:39.479Z,-2.12
2023-02-07T07:28:39.708Z,-2.12
2023-02-07T07:29:40.371Z,-2.12
2023-02-07T07:30:40.830Z,-2.12
2023-02-07T07:31:41.319Z,-2.11
2023-02-07T07:32:41.367Z,-2.11
2023-02-07T07:33:42.168Z,-2.10
2023-02-07T07:34:43.163Z,-2.09
2023-02-07T07:35:43.557Z,-2.08
2023-02-07T07:36:43.851Z,-2.07
2023-02-07T07:37:44.390Z,-2.06
2023-02-07T07:38:47.536Z,-2.04
2023-02-07T07:39:45.393Z,-2.02
2023-02-07T07:40:45.460Z,-2.01
2023-02-07T07:41:45.569Z,-1.99
2023-02-07T07:42:45.580Z,-1.98
2023-02-07T07:43:45.812Z,-1.97
2023-02-07T07:44:46.095Z,-1.96
2023-02-07T07:45:46.178Z,-1.94
2023-02-07T07:46:46.451Z,-1.93
2023-02-07T07:47:47.376Z,-1.91
2023-02-07T07:48:48.313Z,-1.89
2023-02-07T07:48:56.958Z,-1.60
2023-02-07T07:49:57.848Z,-1.60
2023-02-07T07:50:57.984Z,-1.59
2023-02-07T07:51:58.063Z,-1.59
2023-02-07T07:52:58.185Z,-1.57
2023-02-07T07:53:59.758Z,-1.56
2023-02-07T07:55:00.016Z,-1.54
2023-02-07T07:56:00.472Z,-1.53
2023-02-07T07:57:01.276Z,-1.53
2023-02-07T07:58:01.390Z,-1.52
2023-02-07T07:59:05.846Z,-1.50
2023-02-07T08:00:01.919Z,-1.49
2023-02-07T08:01:02.353Z,-1.48
2023-02-07T08:02:02.441Z,-1.47
2023-02-07T08:03:03.058Z,-1.47
2023-02-07T08:04:03.259Z,-1.46
2023-02-07T08:05:03.186Z,-1.45
2023-02-07T08:06:03.469Z,-1.45
2023-02-07T08:07:04.387Z,-1.45
2023-02-07T08:08:05.328Z,-1.44
2023-02-07T08:09:05.562Z,-1.44
2023-02-07T08:10:05.680Z,-1.43
2023-02-07T08:11:06.147Z,-1.43
2023-02-07T08:12:06.804Z,-1.43
2023-02-07T08:13:06.961Z,-1.43
2023-02-07T08:14:07.087Z,-1.43
2023-02-07T08:15:08.077Z,-1.43
2023-02-07T08:16:09.093Z,-1.43
2023-02-07T08:17:10.650Z,-1.42
2023-02-07T08:18:09.681Z,-1.42
2023-02-07T08:19:10.092Z,-1.42
2023-02-07T08:20:10.569Z,-1.42
2023-02-07T08:20:19.709Z,-1.38
2023-02-07T08:21:19.752Z,-1.40
2023-02-07T08:22:21.097Z,-1.40
2023-02-07T08:23:20.200Z,-1.40
2023-02-07T08:24:21.152Z,-1.40
2023-02-07T08:25:22.125Z,-1.41
2023-02-07T08:26:22.529Z,-1.41
2023-02-07T08:27:22.692Z,-1.41
2023-02-07T08:28:22.799Z,-1.41
2023-02-07T08:29:23.090Z,-1.41
2023-02-07T08:30:23.198Z,-1.41
2023-02-07T08:31:23.773Z,-1.42
2023-02-07T08:32:23.960Z,-1.42
2023-02-07T08:33:24.186Z,-1.43
2023-02-07T08:34:24.395Z,-1.43
2023-02-07T08:35:24.664Z,-1.44
2023-02-07T08:36:25.217Z,-1.45
2023-02-07T08:37:25.220Z,-1.45
2023-02-07T08:38:26.023Z,-1.46
2023-02-07T08:39:26.988Z,-1.46
2023-02-07T08:40:27.522Z,-1.46
2023-02-07T08:41:28.425Z,-1.46
2023-02-07T08:42:28.556Z,-1.46
2023-02-07T08:43:28.740Z,-1.46
2023-02-07T08:44:29.194Z,-1.45
2023-02-07T08:45:30.186Z,-1.45
2023-02-07T08:46:30.676Z,-1.45
2023-02-07T08:47:31.206Z,-1.44
2023-02-07T08:48:31.399Z,-1.43
2023-02-07T08:49:32.276Z,-1.42
2023-02-07T08:50:33.061Z,-1.42
2023-02-07T08:51:33.141Z,-1.41
2023-02-07T08:51:41.820Z,-1.20
2023-02-07T08:52:42.702Z,-1.23
2023-02-07T08:53:42.761Z,-1.24
2023-02-07T08:54:42.963Z,-1.24
2023-02-07T08:55:43.985Z,-1.24
2023-02-07T08:56:44.100Z,-1.24
2023-02-07T08:57:44.293Z,-1.23
2023-02-07T08:58:44.594Z,-1.23
2023-02-07T08:59:45.017Z,-1.22
2023-02-07T09:00:45.302Z,-1.22
2023-02-07T09:01:45.897Z,-1.21
2023-02-07T09:02:46.297Z,-1.20
2023-02-07T09:03:46.839Z,-1.20
2023-02-07T09:04:46.904Z,-1.19
2023-02-07T09:05:47.385Z,-1.18
2023-02-07T09:06:48.105Z,-1.17
2023-02-07T09:07:51.582Z,-1.16
2023-02-07T09:08:48.927Z,-1.14
2023-02-07T09:09:49.221Z,-1.13
2023-02-07T09:10:49.770Z,-1.11
2023-02-07T09:11:49.983Z,-1.09
2023-02-07T09:12:50.094Z,-1.08
2023-02-07T09:13:50.374Z,-1.07
2023-02-07T09:14:50.697Z,-1.05
2023-02-07T09:15:51.092Z,-1.03
2023-02-07T09:16:51.804Z,-1.02
2023-02-07T09:17:51.898Z,-1.00
2023-02-07T09:18:52.187Z,-0.98
2023-02-07T09:19:52.374Z,-0.96
2023-02-07T09:20:52.847Z,-0.93
2023-02-07T09:21:53.725Z,-0.91
2023-02-07T09:22:54.247Z,-0.88
2023-02-07T09:23:07.487Z,-0.53
2023-02-07T09:24:06.945Z,-0.54
2023-02-07T09:25:07.496Z,-0.54
2023-02-07T09:26:08.384Z,-0.53
2023-02-07T09:27:09.358Z,-0.52
2023-02-07T09:28:09.623Z,-0.51
2023-02-07T09:29:09.620Z,-0.50
2023-02-07T09:30:10.453Z,-0.49
2023-02-07T09:31:10.832Z,-0.47
2023-02-07T09:32:11.258Z,-0.46
2023-02-07T09:33:11.712Z,-0.44
2023-02-07T09:34:12.009Z,-0.43
2023-02-07T09:35:12.128Z,-0.41
2023-02-07T09:36:12.267Z,-0.38
2023-02-07T09:37:12.686Z,-0.36
2023-02-07T09:38:13.719Z,-0.34
2023-02-07T09:39:13.741Z,-0.32
2023-02-07T09:40:14.595Z,-0.30
2023-02-07T09:41:14.619Z,-0.28
2023-02-07T09:42:15.389Z,-0.26
2023-02-07T09:43:16.395Z,-0.24
2023-02-07T09:44:16.770Z,-0.22
2023-02-07T09:45:16.789Z,-0.20
2023-02-07T09:46:17.751Z,-0.18
2023-02-07T09:47:18.155Z,-0.15
2023-02-07T09:48:19.186Z,-0.13
2023-02-07T09:49:20.086Z,-0.11
2023-02-07T09:50:20.133Z,-0.09
2023-02-07T09:51:20.496Z,-0.06
2023-02-07T09:52:20.688Z,-0.04
2023-02-07T09:53:21.097Z,-0.03
2023-02-07T09:54:21.224Z,-0.01
2023-02-07T09:54:29.904Z,0.22
2023-02-07T09:55:30.002Z,0.21
2023-02-07T09:56:30.146Z,0.21
2023-02-07T09:57:30.269Z,0.21
2023-02-07T09:58:30.435Z,0.21
2023-02-07T09:59:30.978Z,0.21
2023-02-07T10:00:31.949Z,0.22
2023-02-07T10:01:32.091Z,0.22
2023-02-07T10:02:32.703Z,0.23
2023-02-07T10:03:33.272Z,0.23
2023-02-07T10:04:33.416Z,0.24
2023-02-07T10:05:33.952Z,0.26
2023-02-07T10:06:34.732Z,0.27
2023-02-07T10:07:35.673Z,0.28
2023-02-07T10:08:40.961Z,0.28
2023-02-07T10:09:36.387Z,0.29
2023-02-07T10:10:36.504Z,0.29
2023-02-07T10:11:36.906Z,0.29
2023-02-07T10:12:37.129Z,0.29
2023-02-07T10:13:37.264Z,0.30
2023-02-07T10:14:38.288Z,0.30
2023-02-07T10:15:38.782Z,0.30
2023-02-07T10:16:39.602Z,0.30
2023-02-07T10:17:39.610Z,0.30
2023-02-07T10:18:39.773Z,0.30
2023-02-07T10:19:40.200Z,0.30
2023-02-07T10:20:41.486Z,0.29
2023-02-07T10:21:41.461Z,0.29
2023-02-07T10:22:42.417Z,0.29
2023-02-07T10:23:43.293Z,0.29
2023-02-07T10:23:53.882Z,0.24
2023-02-07T10:25:02.388Z,0.23
2023-02-07T10:25:57.702Z,0.23
2023-02-07T10:26:58.034Z,0.24
2023-02-07T10:28:03.520Z,0.25
2023-02-07T10:29:57.047Z,0.27
2023-02-07T10:31:00.403Z,0.29
2023-02-07T10:31:58.132Z,0.30
2023-02-07T10:32:58.490Z,0.32
2023-02-07T10:34:01.181Z,0.34
2023-02-07T10:34:59.484Z,0.37
2023-02-07T10:36:00.029Z,0.39
2023-02-07T10:37:00.300Z,0.42
2023-02-07T10:38:01.049Z,0.46
2023-02-07T10:39:08.866Z,0.51
2023-02-07T10:40:01.840Z,0.54
2023-02-07T10:41:02.198Z,0.57
2023-02-07T10:42:02.479Z,0.59
2023-02-07T10:43:02.631Z,0.61
2023-02-07T10:44:03.223Z,0.65
2023-02-07T10:45:03.335Z,0.72
2023-02-07T10:46:06.856Z,0.81
2023-02-07T10:47:05.611Z,0.90
2023-02-07T10:48:05.201Z,1.02
2023-02-07T10:49:05.540Z,1.13
2023-02-07T10:50:06.203Z,1.25
2023-02-07T10:51:06.641Z,1.38
2023-02-07T10:52:06.906Z,1.52
2023-02-07T10:52:25.814Z,3.52
2023-02-07T10:53:26.260Z,3.45
2023-02-07T10:54:26.573Z,3.46
2023-02-07T10:55:27.240Z,3.49
2023-02-07T10:56:28.683Z,3.51
2023-02-07T10:57:31.144Z,3.54
2023-02-07T10:58:28.619Z,3.58
2023-02-07T10:59:29.047Z,3.62
2023-02-07T11:00:29.764Z,3.68
2023-02-07T11:01:30.054Z,3.73
2023-02-07T11:02:31.110Z,3.78
2023-02-07T11:03:31.606Z,3.83
2023-02-07T11:04:32.532Z,3.88
2023-02-07T11:05:33.150Z,3.94
2023-02-07T11:06:33.194Z,3.99
2023-02-07T11:07:46.134Z,4.05
2023-02-07T11:08:33.416Z,4.10
2023-02-07T11:09:33.591Z,4.14
2023-02-07T11:10:33.628Z,4.18
2023-02-07T11:11:33.703Z,4.20
2023-02-07T11:12:34.194Z,4.23
2023-02-07T11:13:34.279Z,4.25
2023-02-07T11:14:36.324Z,4.29
2023-02-07T11:15:34.635Z,4.32
2023-02-07T11:16:35.496Z,4.34
2023-02-07T11:17:36.506Z,4.37
2023-02-07T11:18:36.698Z,4.40
2023-02-07T11:19:36.987Z,4.42
2023-02-07T11:20:37.066Z,4.41
2023-02-07T11:21:37.064Z,4.42
2023-02-07T11:22:37.936Z,4.41
2023-02-07T11:22:47.151Z,4.62
2023-02-07T11:23:47.957Z,4.61
2023-02-07T11:24:48.169Z,4.61
2023-02-07T11:25:48.253Z,4.62
2023-02-07T11:26:49.182Z,4.63
2023-02-07T11:27:50.131Z,4.65
2023-02-07T11:28:50.132Z,4.67
2023-02-07T11:29:50.853Z,4.68
2023-02-07T11:30:51.981Z,4.70
2023-02-07T11:31:51.982Z,4.72
2023-02-07T11:32:52.504Z,4.74
2023-02-07T11:33:53.032Z,4.76
2023-02-07T11:34:53.896Z,4.78
2023-02-07T11:35:54.853Z,4.81
2023-02-07T11:36:55.269Z,4.83
2023-02-07T11:37:56.102Z,4.83
2023-02-07T11:38:57.016Z,4.81
2023-02-07T11:39:58.009Z,4.81
2023-02-07T11:40:59.349Z,4.82
2023-02-07T11:42:00.157Z,4.83
2023-02-07T11:42:59.935Z,4.84
2023-02-07T11:44:00.819Z,4.85
2023-02-07T11:45:01.639Z,4.86
2023-02-07T11:46:02.548Z,4.87
2023-02-07T11:47:02.771Z,4.87
2023-02-07T11:48:02.879Z,4.86
2023-02-07T11:48:13.915Z,4.66
2023-02-07T11:49:14.884Z,4.61
2023-02-07T11:50:15.697Z,4.60
2023-02-07T11:51:15.788Z,4.62
2023-02-07T11:52:16.003Z,4.64
2023-02-07T11:53:16.013Z,4.65
2023-02-07T11:54:16.059Z,4.67
2023-02-07T11:55:16.926Z,4.67
2023-02-07T11:56:17.225Z,4.66
2023-02-07T11:57:17.616Z,4.65
2023-02-07T11:58:18.470Z,4.66
2023-02-07T11:59:18.547Z,4.68
2023-02-07T12:00:19.211Z,4.70
2023-02-07T12:01:19.531Z,4.72
2023-02-07T12:02:19.758Z,4.73
2023-02-07T12:03:19.805Z,4.73
2023-02-07T12:04:20.341Z,4.75
2023-02-07T12:05:21.307Z,4.77
2023-02-07T12:06:22.197Z,4.79
2023-02-07T12:07:23.342Z,4.81
2023-02-07T12:08:23.268Z,4.82
2023-02-07T12:09:23.533Z,4.81
2023-02-07T12:10:23.629Z,4.80
2023-02-07T12:11:23.931Z,4.80
2023-02-07T12:12:23.924Z,4.80
2023-02-07T12:13:24.387Z,4.81
2023-02-07T12:14:24.738Z,4.80
2023-02-07T12:15:25.077Z,4.79
2023-02-07T12:16:25.223Z,4.79
2023-02-07T12:17:25.898Z,4.79
2023-02-07T12:18:26.258Z,4.79
2023-02-07T12:19:26.665Z,4.79
2023-02-07T12:19:38.840Z,4.94
2023-02-07T12:20:39.091Z,4.94
2023-02-07T12:21:39.165Z,4.95
2023-02-07T12:22:42.109Z,4.96
2023-02-07T12:23:42.832Z,4.97
2023-02-07T12:24:40.561Z,4.98
2023-02-07T12:25:41.447Z,4.99
2023-02-07T12:26:41.655Z,4.99
2023-02-07T12:27:41.941Z,5.00
2023-02-07T12:28:42.221Z,5.00
2023-02-07T12:29:42.438Z,4.99
2023-02-07T12:30:43.241Z,4.98
2023-02-07T12:31:43.651Z,4.98
2023-02-07T12:32:44.264Z,4.98
2023-02-07T12:33:44.556Z,4.98
2023-02-07T12:34:45.521Z,4.98
2023-02-07T12:35:56.882Z,4.99
2023-02-07T12:36:45.783Z,5.00
2023-02-07T12:37:45.940Z,5.02
2023-02-07T12:38:46.384Z,5.03
2023-02-07T12:39:47.260Z,5.05
2023-02-07T12:40:47.612Z,5.07
2023-02-07T12:41:47.655Z,5.08
2023-02-07T12:42:47.879Z,5.09
2023-02-07T12:43:48.652Z,5.11
2023-02-07T12:44:49.208Z,5.11
2023-02-07T12:45:50.043Z,5.12
2023-02-07T12:46:50.616Z,5.11
2023-02-07T12:47:50.964Z,5.09
2023-02-07T12:48:51.297Z,5.08
2023-02-07T12:49:52.106Z,5.08
2023-02-07T12:50:52.885Z,5.07
2023-02-07T12:51:03.634Z,4.93
2023-02-07T12:52:06.333Z,4.91
2023-02-07T12:53:05.133Z,4.91
2023-02-07T12:54:05.920Z,4.92
2023-02-07T12:55:06.222Z,4.93
2023-02-07T12:56:06.747Z,4.94
2023-02-07T12:57:44.111Z,5.25
2023-02-07T12:58:44.324Z,5.21
2023-02-07T12:59:44.823Z,5.21
2023-02-07T13:00:44.866Z,5.18
2023-02-07T13:01:45.859Z,5.14
2023-02-07T13:02:49.101Z,5.12
2023-02-07T13:03:47.468Z,5.09
2023-02-07T13:04:48.218Z,5.08
2023-02-07T13:05:48.576Z,5.07
2023-02-07T13:06:49.427Z,5.07
2023-02-07T13:07:50.209Z,5.06
2023-02-07T13:08:50.315Z,5.05
2023-02-07T13:09:50.484Z,5.05
2023-02-07T13:10:51.099Z,5.05
2023-02-07T13:11:51.220Z,5.06
2023-02-07T13:14:18.518Z,5.23
2023-02-07T13:15:18.469Z,5.20
2023-02-07T13:16:18.582Z,5.21
2023-02-07T13:17:19.232Z,5.21
2023-02-07T13:18:19.435Z,5.22
2023-02-07T13:19:20.297Z,5.22
2023-02-07T13:20:20.862Z,5.22
2023-02-07T13:21:21.204Z,5.22
2023-02-07T13:22:23.090Z,5.22
2023-02-07T13:23:22.282Z,5.23
2023-02-07T13:24:22.965Z,5.23
2023-02-07T13:25:23.576Z,5.21
2023-02-07T13:26:24.056Z,5.20
2023-02-07T13:27:24.308Z,5.18
2023-02-07T13:28:24.651Z,5.17
2023-02-07T13:29:24.609Z,5.15
2023-02-07T13:30:25.014Z,5.14
2023-02-07T13:31:25.684Z,5.13
2023-02-07T13:32:26.089Z,5.12
2023-02-07T13:33:26.883Z,5.10
2023-02-07T13:34:27.294Z,5.07
2023-02-07T13:35:27.599Z,5.02
2023-02-07T13:36:28.581Z,4.98
2023-02-07T13:37:28.636Z,4.95
2023-02-07T13:38:29.073Z,4.92
2023-02-07T13:39:29.292Z,4.90
2023-02-07T13:40:29.506Z,4.88
2023-02-07T13:41:29.722Z,4.86
2023-02-07T13:42:32.668Z,4.86
2023-02-07T13:43:30.559Z,4.85
2023-02-07T13:44:30.791Z,4.85
2023-02-07T13:44:41.585Z,4.90
2023-02-07T13:45:42.281Z,4.89
2023-02-07T13:46:44.885Z,4.88
2023-02-07T13:47:43.079Z,4.88
2023-02-07T13:48:51.220Z,4.88
2023-02-07T13:49:46.656Z,4.88
2023-02-07T13:50:44.861Z,4.88
2023-02-07T13:51:45.120Z,4.88
2023-02-07T13:53:31.844Z,4.88
2023-02-07T13:53:53.999Z,4.88
2023-02-07T13:54:46.844Z,4.89
2023-02-07T13:55:47.938Z,4.90
2023-02-07T13:56:48.654Z,4.91
2023-02-07T13:57:49.211Z,4.93
2023-02-07T13:58:49.901Z,4.95
2023-02-07T13:59:50.781Z,4.97
2023-02-07T14:00:51.183Z,4.98
2023-02-07T14:01:51.581Z,4.99
2023-02-07T14:02:51.905Z,5.00
2023-02-07T14:03:52.608Z,5.01
2023-02-07T14:04:53.075Z,5.01
2023-02-07T14:05:53.601Z,5.02
2023-02-07T14:06:54.352Z,5.03
2023-02-07T14:07:54.613Z,5.05
2023-02-07T14:08:55.656Z,5.06
2023-02-07T14:09:56.072Z,5.08
2023-02-07T14:10:56.870Z,5.10
2023-02-07T14:11:58.385Z,5.11
2023-02-07T14:12:57.698Z,5.13
2023-02-07T14:13:58.254Z,5.16
2023-02-07T14:15:03.276Z,5.19
2023-02-07T14:15:59.618Z,5.21
2023-02-07T14:17:00.134Z,5.24